»·PEaware :: N980AN KPSP-KSNA

N980AN :: KPSP-KSNA

FLIGHT INFORMATION

Flight Status: Arrived
Operator: Privately registered:
United States
More flights under this callsign
Pilot: Sergei F. (8485)
Aircraft: BOEING 737-800
(B738)
More flights by this aircraft type
Origin: KPSP Palm Springs Intl
United States
Destination: KSNA John Wayne-Orange Co
United States
More flights between these airports :: More routes between these airports
Route: CATH1 PSP V388 DEWAY FRETS KAYOH7
File this flight plan on PilotEdge
Remarks:
Altitude:
(Current/Filed)
12,000ft
Speed:
(Current/Filed)
400kts
Departed: 05-Jan-21 06:13 PM
Arrived: 05-Jan-21 06:53 PM
Distance/Time
Traveled:
68nm/0:40
Distance/Time
To Go:
Arrived

Flight Plot

Page will automatically refresh every two minutes.

Flight plan parsing failed; only flown route is shown


Map Options




Map Legend


Flown Route
Filed Route
Departure Airport
Arrival Airport
Navaid (VOR, NDB)
Fix

Horizontal Profiles

Position Reports

Time Latitude Longitude Heading Altitude Ground
Speed
05-Jan-21 17:49 33.821509 -116.506469 260 415ft 0kts
05-Jan-21 17:50 33.821509 -116.506469 260 415ft 0kts
05-Jan-21 17:51 33.821509 -116.506469 260 415ft 0kts
05-Jan-21 17:52 33.821509 -116.506469 260 415ft 0kts
05-Jan-21 17:53 33.821509 -116.506469 260 415ft 0kts
05-Jan-21 17:54 33.821509 -116.506469 260 415ft 0kts
05-Jan-21 17:55 33.821509 -116.506469 260 415ft 0kts
05-Jan-21 17:56 33.821509 -116.506469 260 415ft 0kts
05-Jan-21 17:57 33.821509 -116.506469 260 415ft 0kts
05-Jan-21 17:57 33.821509 -116.506469 260 415ft 0kts
05-Jan-21 17:59 33.821509 -116.506469 260 415ft 0kts
05-Jan-21 17:59 33.821550 -116.506148 269 414ft 2kts
05-Jan-21 18:01 33.821147 -116.505668 1 414ft 1kts
05-Jan-21 18:01 33.821101 -116.505670 0 414ft 0kts
05-Jan-21 18:02 33.821101 -116.505670 0 414ft 0kts
05-Jan-21 18:03 33.821101 -116.505670 0 414ft 0kts
05-Jan-21 18:04 33.821101 -116.505670 0 414ft 0kts
05-Jan-21 18:05 33.821101 -116.505670 0 414ft 0kts
05-Jan-21 18:06 33.821101 -116.505670 0 414ft 0kts
05-Jan-21 18:07 33.821939 -116.505675 2 415ft 3kts
05-Jan-21 18:08 33.823072 -116.503973 101 414ft 7kts
05-Jan-21 18:09 33.820471 -116.501526 143 409ft 13kts
05-Jan-21 18:10 33.818525 -116.499167 89 401ft 10kts
05-Jan-21 18:11 33.819019 -116.498202 323 401ft 1kts
05-Jan-21 18:12 33.842459 -116.518821 323 1292ft 179kts
05-Jan-21 18:13 33.883277 -116.558024 321 4364ft 203kts
05-Jan-21 18:14 33.930119 -116.553170 68 7460ft 221kts
05-Jan-21 18:15 33.905194 -116.485215 126 10278ft 241kts
05-Jan-21 18:16 33.864945 -116.417526 120 11975ft 255kts
05-Jan-21 18:17 33.833081 -116.343967 117 11995ft 248kts
05-Jan-21 18:18 33.801771 -116.270144 117 11987ft 247kts
05-Jan-21 18:19 33.754977 -116.226937 212 11987ft 232kts
05-Jan-21 18:20 33.761174 -116.288531 311 11993ft 233kts
05-Jan-21 18:21 33.814393 -116.357806 312 11992ft 327kts
05-Jan-21 18:22 33.873598 -116.450272 292 12002ft 354kts
05-Jan-21 18:23 33.903996 -116.562941 287 11999ft 354kts
05-Jan-21 18:24 33.932807 -116.676735 286 12000ft 354kts
05-Jan-21 18:25 33.936229 -116.794240 258 11999ft 355kts
05-Jan-21 18:26 33.911517 -116.908842 256 11998ft 354kts
05-Jan-21 18:27 33.887151 -117.020958 259 11994ft 318kts
05-Jan-21 18:28 33.871756 -117.114740 260 11957ft 257kts
05-Jan-21 18:29 33.858212 -117.198773 260 10519ft 263kts
05-Jan-21 18:30 33.844346 -117.284835 260 9204ft 260kts
05-Jan-21 18:31 33.830595 -117.370183 260 7996ft 253kts
05-Jan-21 18:32 33.819006 -117.448368 269 7995ft 227kts
05-Jan-21 18:33 33.826816 -117.528195 277 6781ft 244kts
05-Jan-21 18:34 33.833300 -117.606201 270 5905ft 225kts
05-Jan-21 18:35 33.833054 -117.683419 269 4540ft 224kts
05-Jan-21 18:36 33.824362 -117.756047 244 3348ft 215kts
05-Jan-21 18:37 33.786017 -117.798266 209 2345ft 173kts
05-Jan-21 18:38 33.748858 -117.822425 207 1545ft 140kts
05-Jan-21 18:39 33.714498 -117.844497 208 764ft 138kts
05-Jan-21 18:40 33.680390 -117.865837 206 106ft 139kts
05-Jan-21 18:41 33.643090 -117.890587 208 1608ft 165kts
05-Jan-21 18:42 33.600251 -117.918131 207 2972ft 189kts
05-Jan-21 18:43 33.582643 -117.971740 320 3068ft 228kts
05-Jan-21 18:44 33.645667 -117.974896 21 4979ft 232kts
05-Jan-21 18:45 33.698578 -117.944791 25 4993ft 191kts
05-Jan-21 18:46 33.746158 -117.914794 27 4080ft 187kts
05-Jan-21 18:47 33.785105 -117.884731 58 3330ft 155kts
05-Jan-21 18:48 33.782448 -117.837981 150 2477ft 146kts
05-Jan-21 18:49 33.743778 -117.827693 189 1493ft 143kts
05-Jan-21 18:50 33.709130 -117.848032 209 682ft 137kts
05-Jan-21 18:51 33.675427 -117.869023 207 67ft 116kts
05-Jan-21 18:52 33.669199 -117.871632 125 66ft 0kts
05-Jan-21 18:53 33.669168 -117.870896 49 66ft 5kts
05-Jan-21 18:54 33.671359 -117.868661 35 66ft 12kts
05-Jan-21 18:55 33.674274 -117.866367 27 66ft 12kts
05-Jan-21 18:56 33.675096 -117.865297 114 66ft 3kts
05-Jan-21 18:57 33.675013 -117.865101 117 66ft 0kts
05-Jan-21 19:02 33.675013 -117.865101 117 66ft 0kts
05-Jan-21 19:03 33.675013 -117.865101 117 66ft 0kts

Navigation Log

Ident Type
Flight plan parsing failed, navigation log unavailable